Time;durP1;ratioP1;P1;durP2;ratioP2;P2;SDS_P1;SDS_P2;PMS_P1;PMS_P2;Temp;Humidity;BMP_temperature;BMP_pressure;BME280_temperature;BME280_humidity;BME280_pressure;Samples;Min_cycle;Max_cycle;Signal;HPM_P1;HPM_P2
2021/09/21 00:00:43;;;;;;;4.50;1.52;;;;;;;14.16;83.75;101630.13;5054326;28;20033;-76
2021/09/21 00:03:08;;;;;;;3.35;1.20;;;;;;;14.09;83.88;101633.22;5036423;28;20524;-76
2021/09/21 00:05:35;;;;;;;1.75;1.20;;;;;;;14.07;83.49;101629.91;5035420;28;20021;-76
2021/09/21 00:08:00;;;;;;;5.72;1.77;;;;;;;14.02;84.05;101626.31;5036259;28;20384;-76
2021/09/21 00:10:26;;;;;;;3.38;1.45;;;;;;;13.95;83.90;101634.19;5036885;28;20033;-76
2021/09/21 00:12:51;;;;;;;3.08;1.17;;;;;;;13.95;83.76;101625.81;5035231;28;20484;-76
2021/09/21 00:15:17;;;;;;;5.38;1.38;;;;;;;13.90;84.37;101632.28;5035254;28;20067;-76
2021/09/21 00:17:44;;;;;;;7.40;1.58;;;;;;;13.84;84.21;101630.63;5019227;28;20049;-76
2021/09/21 00:20:10;;;;;;;4.65;1.38;;;;;;;13.81;84.15;101626.44;5021440;28;20037;-75
2021/09/21 00:22:36;;;;;;;4.35;1.40;;;;;;;13.75;84.16;101627.59;5052879;28;20033;-76
2021/09/21 00:25:02;;;;;;;5.65;1.45;;;;;;;13.73;84.10;101637.38;5021850;28;20033;-76
2021/09/21 00:27:28;;;;;;;7.05;1.92;;;;;;;13.68;84.20;101638.28;5003078;28;20113;-76
2021/09/21 00:29:53;;;;;;;3.42;1.20;;;;;;;13.68;84.41;101631.81;5036535;28;20441;-76
2021/09/21 00:32:24;;;;;;;6.32;1.77;;;;;;;13.62;84.17;101642.19;5037823;28;20562;-76
2021/09/21 00:34:50;;;;;;;3.72;1.30;;;;;;;13.54;84.04;101631.63;5037021;28;20029;-76
2021/09/21 00:37:15;;;;;;;6.43;1.52;;;;;;;13.51;84.28;101638.63;5037439;28;20086;-76
2021/09/21 00:39:41;;;;;;;3.88;1.35;;;;;;;13.48;84.09;101636.38;5036465;28;20033;-76
2021/09/21 00:42:07;;;;;;;4.95;1.40;;;;;;;13.45;84.77;101642.53;5054414;28;20029;-76
2021/09/21 00:44:34;;;;;;;5.82;1.77;;;;;;;13.44;84.53;101642.84;5052654;28;20055;-76
2021/09/21 00:47:07;;;;;;;5.03;1.45;;;;;;;13.41;84.89;101647.03;5044970;28;20033;-76
2021/09/21 00:49:33;;;;;;;;;;;;;;;13.39;85.01;101638.13;5030424;28;20033;-76
2021/09/21 00:51:59;;;;;;;3.60;1.40;;;;;;;13.39;84.52;101640.91;5058448;28;19913;-75
2021/09/21 00:54:24;;;;;;;3.97;1.33;;;;;;;13.32;84.87;101640.41;5045669;28;20063;-76
2021/09/21 00:56:50;;;;;;;3.17;1.13;;;;;;;13.29;85.03;101639.00;5051456;28;20037;-76
2021/09/21 00:59:15;;;;;;;3.50;1.30;;;;;;;13.30;84.95;101639.84;5040793;28;20039;-76
2021/09/21 01:01:41;;;;;;;4.57;1.52;;;;;;;13.28;85.11;101642.91;5038598;28;20366;-76
2021/09/21 01:04:06;;;;;;;7.90;1.42;;;;;;;13.26;85.08;101638.72;5038786;28;20028;-76
2021/09/21 01:06:32;;;;;;;4.90;1.70;;;;;;;13.26;85.02;101647.94;5049602;28;20594;-76
2021/09/21 01:08:58;;;;;;;2.88;1.30;;;;;;;13.23;85.13;101642.88;5038462;28;20520;-75
2021/09/21 01:11:23;;;;;;;3.75;1.65;;;;;;;13.20;85.31;101643.44;5020615;28;20025;-75
2021/09/21 01:13:49;;;;;;;3.75;1.45;;;;;;;13.16;85.13;101640.41;5027829;28;20033;-76
2021/09/21 01:16:14;;;;;;;3.90;1.25;;;;;;;13.16;84.94;101643.19;5034316;28;20036;-75
2021/09/21 01:18:40;;;;;;;5.97;1.63;;;;;;;13.11;84.93;101634.00;5058040;28;20028;-76
2021/09/21 01:21:07;;;;;;;5.13;1.40;;;;;;;13.13;84.90;101638.19;5038271;28;20040;-76
2021/09/21 01:23:48;;;;;;;6.40;1.45;;;;;;;13.10;84.90;101640.72;5038639;28;20481;-75
2021/09/21 01:26:14;;;;;;;3.97;1.40;;;;;;;13.07;84.52;101630.97;5009829;28;20520;-75
2021/09/21 01:28:40;;;;;;;5.45;1.52;;;;;;;13.06;84.53;101631.22;5039311;28;20025;-76
2021/09/21 01:31:05;;;;;;;6.03;1.48;;;;;;;13.03;84.62;101632.63;5057596;28;20102;-75
2021/09/21 01:33:31;;;;;;;3.63;1.30;;;;;;;13.00;84.58;101627.63;5055780;28;20032;-76
2021/09/21 01:35:56;;;;;;;3.10;1.50;;;;;;;12.99;84.63;101625.13;5007148;28;20028;-76
2021/09/21 01:38:22;;;;;;;5.47;1.58;;;;;;;12.99;84.42;101625.13;5060125;28;20435;-76
2021/09/21 01:40:47;;;;;;;5.28;1.70;;;;;;;12.94;84.47;101631.56;5057221;28;20079;-76
2021/09/21 01:43:13;;;;;;;4.15;1.42;;;;;;;12.90;85.01;101622.91;5055795;28;20401;-76
2021/09/21 01:45:38;;;;;;;5.57;1.50;;;;;;;12.88;84.69;101624.31;5038659;28;20039;-76
2021/09/21 01:48:04;;;;;;;3.60;1.40;;;;;;;12.86;84.25;101620.97;5023092;28;20029;-76
2021/09/21 01:50:39;;;;;;;3.72;1.50;;;;;;;12.77;84.97;101623.50;5039666;28;20032;-76
2021/09/21 02:00:43;;;;;;;3.53;1.52;;;;;;;12.67;84.66;101634.66;5056470;28;20044;-75
2021/09/21 02:03:09;;;;;;;3.95;1.42;;;;;;;12.68;84.69;101630.78;5005807;28;20033;-76
2021/09/21 02:05:34;;;;;;;2.72;1.55;;;;;;;12.64;85.47;101627.69;5031283;28;20025;-76
2021/09/21 02:08:00;;;;;;;4.43;1.83;;;;;;;12.60;85.50;101632.16;5013245;28;20033;-76
2021/09/21 02:10:25;;;;;;;4.60;1.52;;;;;;;12.57;85.15;101635.53;5037673;28;20029;-76
2021/09/21 02:12:51;;;;;;;3.22;1.60;;;;;;;12.57;85.33;101638.31;5013134;28;20036;-76
2021/09/21 02:15:17;;;;;;;4.90;1.85;;;;;;;12.56;84.79;101633.00;5037620;28;20029;-76
2021/09/21 02:17:42;;;;;;;3.25;1.40;;;;;;;12.53;85.04;101640.78;5056370;28;20044;-76
2021/09/21 02:20:08;;;;;;;3.50;1.30;;;;;;;12.52;84.95;101643.88;5005735;28;20048;-76
2021/09/21 02:22:33;;;;;;;5.18;2.20;;;;;;;12.45;84.99;101638.59;5037853;28;20036;-76
2021/09/21 02:24:59;;;;;;;6.25;1.90;;;;;;;12.46;85.73;101639.44;5039567;28;20055;-76
2021/09/21 02:27:25;;;;;;;3.15;1.30;;;;;;;12.45;85.08;101643.31;5039525;28;20033;-76
2021/09/21 02:29:51;;;;;;;4.85;1.80;;;;;;;12.46;85.44;101647.78;5055116;28;20068;-75
2021/09/21 02:32:17;;;;;;;6.68;2.22;;;;;;;12.44;85.43;101647.22;5022762;28;20496;-75
2021/09/21 02:34:44;;;;;;;4.60;1.70;;;;;;;12.41;86.09;101656.16;5022505;28;20267;-75
2021/09/21 02:37:13;;;;;;;4.53;1.50;;;;;;;12.43;85.61;101659.50;5020239;28;20621;-75
2021/09/21 02:39:38;;;;;;;4.95;1.73;;;;;;;12.38;85.58;101653.91;5006868;28;20025;-75
2021/09/21 02:42:04;;;;;;;4.65;1.80;;;;;;;12.36;86.19;101650.56;5055526;28;20086;-75
2021/09/21 02:44:29;;;;;;;6.95;1.95;;;;;;;12.36;85.92;101656.97;5054285;28;20045;-75
2021/09/21 02:46:55;;;;;;;6.45;1.90;;;;;;;12.35;86.32;101654.47;5054693;28;20029;-75
2021/09/21 02:49:20;;;;;;;6.75;1.90;;;;;;;12.35;86.29;101654.47;5054110;28;20374;-75
2021/09/21 02:51:46;;;;;;;4.90;2.20;;;;;;;12.34;86.47;101652.78;5055444;28;20021;-75
2021/09/21 02:54:11;;;;;;;8.07;2.28;;;;;;;12.25;87.14;101661.69;5047745;28;20037;-75
2021/09/21 02:56:37;;;;;;;6.72;2.10;;;;;;;12.29;86.89;101656.44;5031172;28;20079;-75
2021/09/21 02:59:03;;;;;;;5.70;1.83;;;;;;;12.30;87.70;101655.31;5017262;28;20037;-75
2021/09/21 03:01:28;;;;;;;5.72;2.70;;;;;;;12.25;89.45;101656.13;5037749;28;20029;-75
2021/09/21 03:03:58;;;;;;;6.00;2.22;;;;;;;12.27;88.69;101644.72;5021270;28;20021;-75
2021/09/21 03:06:33;;;;;;;5.28;2.10;;;;;;;12.30;88.11;101650.56;5053759;28;20048;-75
2021/09/21 03:09:09;;;;;;;5.07;2.25;;;;;;;12.32;87.83;101650.28;5054047;28;20039;-75
2021/09/21 03:11:41;;;;;;;5.95;2.08;;;;;;;12.32;87.88;101649.47;5036938;28;20036;-74
2021/09/21 03:19:24;;;;;;;6.55;2.20;;;;;;;12.33;87.78;101651.97;5054599;28;20068;-75
2021/09/21 03:21:53;;;;;;;6.25;2.30;;;;;;;12.31;87.91;101648.59;5054540;28;20037;-74
2021/09/21 03:24:18;;;;;;;7.05;2.58;;;;;;;12.32;88.82;101649.47;5037158;28;20098;-74
2021/09/21 03:26:44;;;;;;;4.75;2.25;;;;;;;12.29;88.28;101660.03;5057314;28;20029;-75
2021/09/21 03:29:09;;;;;;;11.45;2.70;;;;;;;12.32;89.15;101655.03;5038713;28;20086;-74
2021/09/21 03:31:35;;;;;;;6.72;2.90;;;;;;;12.31;89.23;101659.75;5053847;28;20056;-74
2021/09/21 03:34:00;;;;;;;7.60;2.80;;;;;;;12.33;89.91;101662.28;5036954;28;20033;-74
2021/09/21 03:36:26;;;;;;;9.73;3.00;;;;;;;12.30;89.96;101652.53;5054444;28;20060;-75
2021/09/21 03:38:51;;;;;;;8.05;2.90;;;;;;;12.34;90.44;101652.78;5059148;28;20051;-75
2021/09/21 03:41:17;;;;;;;8.32;3.17;;;;;;;12.33;90.58;101656.69;5037231;28;20033;-76
2021/09/21 03:43:42;;;;;;;7.00;3.25;;;;;;;12.34;90.42;101658.34;4988624;28;20119;-76
2021/09/21 03:46:08;;;;;;;9.20;2.80;;;;;;;12.34;89.84;101648.06;5021102;28;20120;-76
2021/09/21 03:48:34;;;;;;;7.57;3.05;;;;;;;12.33;89.31;101653.91;5003222;28;20029;-76
2021/09/21 03:50:59;;;;;;;6.47;2.95;;;;;;;12.33;88.98;101645.56;5054562;28;20016;-76
2021/09/21 03:53:25;;;;;;;5.15;2.60;;;;;;;12.32;88.45;101652.25;4999756;28;20045;-77
2021/09/21 03:55:50;;;;;;;5.88;2.72;;;;;;;12.33;88.55;101646.38;5018077;28;20029;-76
2021/09/21 03:58:16;;;;;;;5.97;2.60;;;;;;;12.32;88.77;101650.28;4988577;28;20029;-76
2021/09/21 04:00:41;;;;;;;6.43;2.40;;;;;;;12.32;88.16;101655.03;5019361;28;20063;-76
2021/09/21 04:03:07;;;;;;;3.92;2.10;;;;;;;12.30;88.09;101653.34;5021881;28;20067;-76
2021/09/21 04:05:33;;;;;;;7.03;2.47;;;;;;;12.26;88.07;101663.38;5020797;28;20072;-76
2021/09/21 04:07:58;;;;;;;5.80;1.90;;;;;;;12.26;87.87;101673.69;5053103;28;20052;-76
2021/09/21 04:10:24;;;;;;;7.15;2.75;;;;;;;12.25;87.96;101669.22;5018760;28;20021;-76
2021/09/21 04:12:50;;;;;;;6.63;2.20;;;;;;;12.23;87.26;101671.44;5015144;28;20033;-76
2021/09/21 04:15:15;;;;;;;5.70;2.10;;;;;;;12.19;87.60;101662.81;5035678;28;20036;-76
2021/09/21 04:17:41;;;;;;;4.88;2.50;;;;;;;12.19;87.12;101656.41;5035125;28;20079;-76
2021/09/21 04:20:07;;;;;;;4.38;2.20;;;;;;;12.17;87.35;101665.03;5020859;28;20087;-76
2021/09/21 04:22:33;;;;;;;6.25;2.53;;;;;;;12.17;87.01;101669.75;5010379;28;20038;-76
2021/09/21 04:24:58;;;;;;;3.50;2.50;;;;;;;12.14;87.41;101668.38;5013020;28;20066;-76
2021/09/21 04:27:24;;;;;;;5.30;2.60;;;;;;;12.12;87.23;101659.47;5041807;28;20094;-76
2021/09/21 04:29:54;;;;;;;3.47;2.38;;;;;;;12.10;87.32;101663.66;5008944;28;20032;-76
2021/09/21 04:32:19;;;;;;;4.30;2.00;;;;;;;12.07;86.91;101662.25;5024826;28;20025;-76
2021/09/21 04:34:48;;;;;;;5.75;2.20;;;;;;;12.05;87.01;101664.47;5026448;28;20040;-75
2021/09/21 04:37:14;;;;;;;5.63;2.80;;;;;;;12.06;86.86;101666.13;5028675;28;20106;-76
2021/09/21 04:39:41;;;;;;;3.72;2.58;;;;;;;12.02;86.96;101665.84;5025145;28;20038;-76
2021/09/21 04:42:08;;;;;;;6.03;2.55;;;;;;;12.01;86.63;101657.78;5023841;28;20034;-76
2021/09/21 04:44:35;;;;;;;6.53;2.78;;;;;;;11.98;86.68;101661.09;5026550;28;20059;-76
2021/09/21 04:47:01;;;;;;;3.83;2.83;;;;;;;11.98;86.85;101655.53;5027716;28;20076;-76
2021/09/21 04:49:26;;;;;;;5.75;2.78;;;;;;;11.97;86.89;101665.00;5043213;28;20079;-76
2021/09/21 04:51:52;;;;;;;5.40;2.95;;;;;;;11.91;86.62;101661.38;5058502;28;20044;-76
2021/09/21 04:54:17;;;;;;;6.15;3.20;;;;;;;11.93;86.99;101652.75;5059598;28;20036;-76
2021/09/21 04:56:43;;;;;;;5.82;3.22;;;;;;;11.92;87.05;101653.84;5025142;28;20090;-76
2021/09/21 04:59:08;;;;;;;7.10;3.38;;;;;;;11.90;87.31;101654.16;5044561;28;20589;-76
2021/09/21 05:01:36;;;;;;;6.18;4.07;;;;;;;11.91;87.42;101660.53;5027234;28;20029;-76
2021/09/21 05:04:02;;;;;;;6.90;3.85;;;;;;;11.89;87.19;101657.19;5027136;28;20025;-76
2021/09/21 05:06:28;;;;;;;7.13;3.30;;;;;;;11.85;87.08;101643.81;5027132;28;20036;-76
2021/09/21 05:08:53;;;;;;;7.50;3.72;;;;;;;11.87;87.43;101653.84;5025925;28;20631;-76
2021/09/21 05:11:19;;;;;;;8.52;4.18;;;;;;;11.84;87.87;101661.63;5004899;28;20151;-77
2021/09/21 05:13:45;;;;;;;6.40;3.90;;;;;;;11.81;87.90;101662.16;5010665;28;20025;-77
2021/09/21 05:16:10;;;;;;;9.32;3.75;;;;;;;11.82;87.96;101655.47;5041357;28;20041;-76
2021/09/21 05:18:36;;;;;;;8.95;4.50;;;;;;;11.83;87.70;101659.94;5009738;28;20033;-76
2021/09/21 05:21:06;;;;;;;7.40;4.28;;;;;;;11.82;87.74;101658.25;5037572;28;20052;-76
2021/09/21 05:23:32;;;;;;;7.13;3.97;;;;;;;11.79;87.65;101661.59;5010742;28;20029;-75
2021/09/21 05:25:57;;;;;;;7.65;3.70;;;;;;;11.79;87.72;101664.38;5052689;28;20401;-76
2021/09/21 05:28:23;;;;;;;7.65;4.05;;;;;;;11.77;87.51;101669.38;5042325;28;20066;-76
2021/09/21 05:30:48;;;;;;;6.63;3.35;;;;;;;11.78;87.23;101662.72;5025667;28;20048;-76
2021/09/21 05:33:14;;;;;;;7.78;3.55;;;;;;;11.77;87.13;101671.34;5041834;28;20044;-76
2021/09/21 05:35:39;;;;;;;5.90;3.42;;;;;;;11.74;86.86;101671.88;5024212;28;20025;-76
2021/09/21 05:38:05;;;;;;;6.70;3.55;;;;;;;11.71;86.95;101673.25;5014843;28;20030;-76
2021/09/21 05:40:30;;;;;;;6.13;3.83;;;;;;;11.68;87.03;101676.59;5035640;28;20566;-70
2021/09/21 05:42:56;;;;;;;6.70;3.70;;;;;;;11.64;87.12;101672.66;5035292;28;20656;-76
2021/09/21 05:45:22;;;;;;;9.75;3.60;;;;;;;11.60;87.13;101677.94;5040375;28;20501;-77
2021/09/21 05:47:48;;;;;;;6.70;3.15;;;;;;;11.60;86.85;101685.47;5015542;28;20109;-77
2021/09/21 05:50:14;;;;;;;4.80;3.45;;;;;;;11.58;86.92;101696.03;5015948;28;20116;-76
2021/09/21 05:52:40;;;;;;;6.05;3.33;;;;;;;11.57;86.81;101694.38;4990018;28;20041;-76
2021/09/21 05:55:06;;;;;;;5.93;3.40;;;;;;;11.55;86.75;101691.84;5022800;28;20112;-76
2021/09/21 05:57:32;;;;;;;5.68;3.47;;;;;;;11.53;86.93;101696.00;5023027;28;20598;-77
2021/09/21 05:59:57;;;;;;;6.75;3.13;;;;;;;11.51;86.99;101696.28;5020849;28;20032;-76
2021/09/21 06:02:23;;;;;;;5.43;2.67;;;;;;;11.50;86.98;101694.59;5005047;28;20037;-75
2021/09/21 06:04:52;;;;;;;5.20;3.15;;;;;;;11.45;87.00;101702.94;5022580;28;20033;-75
2021/09/21 06:07:18;;;;;;;5.43;3.35;;;;;;;11.47;87.06;101699.88;5030449;28;20030;-76
2021/09/21 06:09:43;;;;;;;6.82;3.38;;;;;;;11.47;87.00;101699.88;5022345;28;20041;-75
2021/09/21 06:12:09;;;;;;;8.45;3.88;;;;;;;11.42;87.28;101703.47;5020964;28;20033;-75
2021/09/21 06:14:34;;;;;;;8.50;3.90;;;;;;;11.43;87.37;101704.31;5038361;28;20082;-77
2021/09/21 06:17:00;;;;;;;8.20;4.30;;;;;;;11.43;87.68;101707.09;5023213;28;20409;-76
2021/09/21 06:19:32;;;;;;;7.03;3.92;;;;;;;11.44;87.80;101711.53;5022694;28;20128;-77
2021/09/21 06:22:13;;;;;;;5.38;3.30;;;;;;;11.48;87.97;101712.66;5020855;28;20488;-77
2021/09/21 06:24:39;;;;;;;5.82;3.50;;;;;;;11.57;88.15;101727.75;5009031;28;20493;-75
2021/09/21 06:27:04;;;;;;;7.88;4.03;;;;;;;11.61;88.80;101723.31;5055925;28;20056;-75
2021/09/21 06:29:30;;;;;;;6.70;4.18;;;;;;;11.61;88.64;101726.91;5039672;28;20032;-76
2021/09/21 06:31:55;;;;;;;14.40;7.70;;;;;;;11.60;91.80;101733.59;5038347;28;20108;-75
2021/09/21 06:34:22;;;;;;;13.30;8.60;;;;;;;11.63;94.01;101733.06;5054962;28;20033;-75
2021/09/21 06:36:48;;;;;;;11.00;6.50;;;;;;;11.68;91.35;101745.34;5037531;28;20025;-76
2021/09/21 06:39:13;;;;;;;10.57;7.07;;;;;;;11.75;90.86;101745.91;5038350;28;20044;-75
2021/09/21 06:41:39;;;;;;;9.77;5.63;;;;;;;11.78;91.07;101746.22;5032623;28;20092;-75
2021/09/21 06:44:04;;;;;;;12.70;7.30;;;;;;;11.83;92.33;101749.00;5055549;28;20259;-76
2021/09/21 06:46:30;;;;;;;13.98;7.97;;;;;;;11.90;92.72;101753.53;5036028;28;20489;-76
2021/09/21 06:48:55;;;;;;;11.02;6.15;;;;;;;11.95;91.29;101759.94;5036258;28;20040;-75
2021/09/21 06:51:21;;;;;;;14.13;8.15;;;;;;;11.99;94.88;101766.63;5054321;28;20090;-75
2021/09/21 06:53:46;;;;;;;16.20;8.05;;;;;;;12.04;94.09;101765.81;5039102;28;20033;-76
2021/09/21 06:56:12;;;;;;;18.63;10.40;;;;;;;12.08;96.40;101775.28;5053438;28;20033;-75
2021/09/21 06:58:38;;;;;;;19.25;9.95;;;;;;;12.13;96.93;101769.75;5037189;28;20037;-76
2021/09/21 07:01:03;;;;;;;14.07;8.60;;;;;;;12.17;96.65;101770.84;5054041;28;20059;-76
2021/09/21 07:03:29;;;;;;;20.52;12.82;;;;;;;12.22;99.30;101776.44;5032287;28;20025;-75
2021/09/21 07:05:57;;;;;;;21.95;13.30;;;;;;;12.28;100.00;101780.91;5021597;28;20032;-76
2021/09/21 07:08:23;;;;;;;19.60;11.05;;;;;;;12.34;97.51;101776.22;5054986;28;20033;-76
2021/09/21 07:10:48;;;;;;;16.58;10.70;;;;;;;12.41;96.90;101787.09;5036302;28;20074;-75
2021/09/21 07:13:14;;;;;;;19.10;10.65;;;;;;;12.46;97.21;101785.16;5055086;28;20044;-76
2021/09/21 07:15:40;;;;;;;15.93;10.02;;;;;;;12.52;96.94;101789.59;5056248;28;20504;-76
2021/09/21 07:18:05;;;;;;;16.10;9.32;;;;;;;12.59;95.86;101789.34;5036932;28;20569;-76
2021/09/21 07:20:31;;;;;;;16.35;9.48;;;;;;;12.65;96.03;101793.81;5054449;28;20524;-75
2021/09/21 07:22:56;;;;;;;15.40;9.30;;;;;;;12.73;95.57;101795.19;5053484;28;20032;-75
2021/09/21 07:25:22;;;;;;;21.02;12.68;;;;;;;12.80;98.10;101795.78;5021150;28;20029;-75
2021/09/21 07:27:48;;;;;;;19.67;12.43;;;;;;;12.86;97.91;101791.03;5054564;28;20039;-75
2021/09/21 07:30:14;;;;;;;21.45;10.98;;;;;;;12.92;96.67;101793.53;5029713;28;20041;-76
2021/09/21 07:32:39;;;;;;;38.20;12.70;;;;;;;13.00;96.21;101799.69;5019366;28;20044;-76
2021/09/21 07:35:05;;;;;;;35.20;15.75;;;;;;;13.06;98.87;101802.19;5020361;28;20039;-76
2021/09/21 07:37:31;;;;;;;31.25;16.45;;;;;;;13.12;100.00;101806.66;5037834;28;20029;-76
2021/09/21 07:39:56;;;;;;;21.20;12.18;;;;;;;13.16;98.83;101801.34;5038237;28;20040;-76
2021/09/21 07:42:22;;;;;;;24.33;14.30;;;;;;;13.22;98.61;101819.75;5037767;28;20041;-75
2021/09/21 07:44:48;;;;;;;19.70;11.27;;;;;;;13.27;96.26;101819.78;4998376;28;20052;-76
2021/09/21 07:47:14;;;;;;;29.48;12.35;;;;;;;13.33;97.66;101820.63;5011276;28;20042;-76
2021/09/21 07:49:39;;;;;;;25.92;14.43;;;;;;;13.38;100.00;101824.25;5014987;28;20030;-75
2021/09/21 07:52:05;;;;;;;30.05;14.93;;;;;;;13.42;98.67;101824.50;5011813;28;20034;-75
2021/09/21 07:54:30;;;;;;;22.60;11.50;;;;;;;13.49;98.20;101825.06;5006330;28;20034;-75
2021/09/21 07:56:56;;;;;;;28.70;16.15;;;;;;;13.54;100.00;101841.81;4995333;28;20030;-76
2021/09/21 07:59:22;;;;;;;32.78;18.23;;;;;;;13.60;100.00;101832.28;5013589;28;20053;-76
2021/09/21 08:01:47;;;;;;;26.70;13.43;;;;;;;13.63;98.77;101839.28;5009576;28;20025;-76
2021/09/21 08:04:13;;;;;;;33.22;18.92;;;;;;;13.71;100.00;101835.06;5006417;28;20030;-76
2021/09/21 08:06:39;;;;;;;36.80;20.52;;;;;;;13.74;100.00;101842.88;5005529;28;20486;-75
2021/09/21 08:09:04;;;;;;;23.55;12.65;;;;;;;13.75;98.14;101838.97;4991530;28;20030;-75
2021/09/21 08:11:30;;;;;;;29.88;16.30;;;;;;;13.82;99.66;101834.75;5023618;28;20025;-75
2021/09/21 08:13:55;;;;;;;37.70;20.98;;;;;;;13.86;100.00;101848.97;5003295;28;20037;-75
2021/09/21 08:16:21;;;;;;;36.70;19.38;;;;;;;13.91;100.00;101848.13;5010193;28;20702;-76
2021/09/21 08:18:46;;;;;;;33.10;19.50;;;;;;;13.94;100.00;101853.97;5007021;28;20018;-76
2021/09/21 08:21:12;;;;;;;45.75;23.42;;;;;;;13.98;100.00;101855.06;4997418;28;20405;-76
2021/09/21 08:23:37;;;;;;;41.97;22.30;;;;;;;14.01;100.00;101846.16;5014718;28;20034;-76
2021/09/21 08:26:05;;;;;;;42.03;23.33;;;;;;;14.07;100.00;101847.81;5012149;28;20665;-76
2021/09/21 08:28:31;;;;;;;40.30;25.23;;;;;;;14.12;100.00;101854.47;5004620;28;20041;-75
2021/09/21 08:30:56;;;;;;;39.38;23.85;;;;;;;14.19;100.00;101846.63;4994086;28;20022;-75
2021/09/21 08:33:22;;;;;;;40.47;24.00;;;;;;;14.25;100.00;101853.88;5015427;28;20105;-75
2021/09/21 08:35:47;;;;;;;40.00;23.85;;;;;;;14.29;100.00;101854.94;5012071;28;20041;-75
2021/09/21 08:38:13;;;;;;;37.50;23.23;;;;;;;14.37;100.00;101856.31;5007657;28;20556;-76
2021/09/21 08:40:38;;;;;;;39.75;25.40;;;;;;;14.44;100.00;101865.25;5004327;28;20030;-76
2021/09/21 08:43:04;;;;;;;41.90;25.63;;;;;;;14.55;100.00;101852.09;4988967;28;20022;-75
2021/09/21 08:45:29;;;;;;;41.90;24.20;;;;;;;14.65;100.00;101852.00;5053645;28;20392;-76
2021/09/21 08:47:55;;;;;;;42.65;25.45;;;;;;;14.78;100.00;101856.97;5053464;28;20032;-76
2021/09/21 08:50:20;;;;;;;40.42;24.85;;;;;;;14.95;99.21;101862.97;5035720;28;20520;-76
2021/09/21 08:52:46;;;;;;;39.83;24.50;;;;;;;15.15;99.75;101863.94;5016034;28;20083;-76
2021/09/21 08:55:12;;;;;;;41.97;26.77;;;;;;;15.29;98.88;101864.94;5031436;28;20029;-76
2021/09/21 08:57:38;;;;;;;40.20;24.95;;;;;;;15.51;98.77;101863.66;5036288;28;20036;-76
2021/09/21 09:00:05;;;;;;;41.83;25.80;;;;;;;15.64;96.37;101862.97;5020397;28;20065;-76
2021/09/21 09:02:32;;;;;;;40.03;25.77;;;;;;;15.80;93.60;101856.09;5052581;28;20028;-76
2021/09/21 09:05:02;;;;;;;39.95;24.95;;;;;;;15.94;91.39;101852.59;5018873;28;20029;-76
2021/09/21 09:07:28;;;;;;;38.47;25.40;;;;;;;16.09;91.43;101867.25;5053293;28;20032;-76
2021/09/21 09:10:04;;;;;;;36.80;24.83;;;;;;;16.28;91.75;101867.31;5030064;28;20033;-76
2021/09/21 09:12:32;;;;;;;33.42;22.58;;;;;;;16.51;89.88;101865.59;5054380;28;20150;-76
2021/09/21 09:14:57;;;;;;;36.65;22.88;;;;;;;16.63;86.90;101855.91;5016080;28;20080;-76
2021/09/21 09:17:23;;;;;;;38.58;22.60;;;;;;;16.78;85.51;101858.53;5037359;28;20358;-76
2021/09/21 09:19:50;;;;;;;31.13;20.38;;;;;;;16.96;84.12;101854.84;5039759;28;20048;-76
2021/09/21 09:22:27;;;;;;;30.50;21.40;;;;;;;17.11;82.59;101861.38;5007819;28;20033;-76
2021/09/21 09:24:57;;;;;;;30.10;20.85;;;;;;;17.18;81.13;101862.66;5056849;28;20040;-76
2021/09/21 09:27:35;;;;;;;27.38;20.00;;;;;;;17.25;79.64;101867.06;5023364;28;20029;-76
2021/09/21 09:30:03;;;;;;;29.52;19.50;;;;;;;17.38;81.24;101860.63;5053788;28;20036;-76
2021/09/21 09:32:29;;;;;;;31.05;19.40;;;;;;;17.45;78.57;101863.06;5039452;28;20039;-76
2021/09/21 09:34:58;;;;;;;26.77;18.90;;;;;;;17.56;77.00;101868.19;5016837;28;20557;-76
2021/09/21 09:37:24;;;;;;;24.23;17.70;;;;;;;17.56;75.37;101868.19;5025585;28;20637;-76
2021/09/21 09:39:58;;;;;;;24.30;17.05;;;;;;;17.69;74.88;101876.94;5060014;28;20033;-76
2021/09/21 09:42:24;;;;;;;23.20;16.17;;;;;;;17.71;72.95;101874.66;5036044;28;20033;-76
2021/09/21 09:44:49;;;;;;;21.90;15.70;;;;;;;17.79;73.09;101874.81;5017036;28;20044;-77
2021/09/21 09:47:15;;;;;;;20.63;14.95;;;;;;;17.93;73.69;101871.19;5057183;28;20040;-77
2021/09/21 09:49:42;;;;;;;21.42;14.43;;;;;;;18.09;72.44;101864.94;5038859;28;20040;-76
2021/09/21 09:52:15;;;;;;;19.73;14.20;;;;;;;18.26;72.58;101869.09;5038927;28;20555;-76
2021/09/21 09:54:41;;;;;;;22.27;14.52;;;;;;;18.33;71.48;101869.53;5056662;28;20035;-76
2021/09/21 09:57:08;;;;;;;24.02;15.57;;;;;;;18.43;71.02;101883.34;5039991;28;20033;-76
2021/09/21 09:59:34;;;;;;;17.90;13.95;;;;;;;18.58;72.53;101881.34;5039436;28;20037;-76
2021/09/21 10:01:59;;;;;;;20.10;14.68;;;;;;;18.61;69.54;101881.56;5023466;28;20037;-76
2021/09/21 10:04:25;;;;;;;21.08;14.75;;;;;;;18.67;69.69;101880.31;5019087;28;20033;-76
2021/09/21 10:06:50;;;;;;;18.38;14.10;;;;;;;18.75;69.06;101871.16;5038183;28;20094;-76
2021/09/21 10:09:16;;;;;;;19.05;12.85;;;;;;;18.94;70.18;101868.19;5058158;28;20041;-76
2021/09/21 10:11:44;;;;;;;20.33;13.80;;;;;;;19.07;69.90;101874.06;5023416;28;20435;-76
2021/09/21 10:14:09;;;;;;;18.20;13.70;;;;;;;19.14;68.17;101878.13;5037251;28;20111;-76
2021/09/21 10:16:44;;;;;;;20.60;13.75;;;;;;;19.20;67.12;101878.81;5037434;28;20036;-76
2021/09/21 10:19:09;;;;;;;16.33;11.93;;;;;;;19.30;67.28;101866.44;5038497;28;20036;-76
2021/09/21 10:21:36;;;;;;;15.07;11.50;;;;;;;19.47;67.08;101852.47;5006683;28;20401;-76
2021/09/21 10:24:04;;;;;;;18.10;11.55;;;;;;;19.53;66.90;101870.94;5037507;28;20048;-77
2021/09/21 10:26:29;;;;;;;21.10;13.63;;;;;;;19.46;64.91;101869.72;5018136;28;20033;-76
2021/09/21 10:28:57;;;;;;;16.83;11.70;;;;;;;19.49;64.17;101869.06;5034960;28;20033;-76
2021/09/21 10:31:23;;;;;;;14.85;10.80;;;;;;;19.57;64.96;101869.13;5038695;28;20078;-77
2021/09/21 10:33:49;;;;;;;18.75;11.80;;;;;;;19.68;64.97;101860.44;5056251;28;20044;-76
2021/09/21 10:36:47;;;;;;;15.27;12.00;;;;;;;19.79;65.71;101853.38;5037992;28;20036;-76
2021/09/21 10:39:13;;;;;;;14.63;11.90;;;;;;;19.74;64.55;101848.69;5019317;28;20044;-76
2021/09/21 10:42:20;;;;;;;13.80;11.43;;;;;;;19.85;65.43;101852.88;5049621;28;20036;-76
2021/09/21 10:44:50;;;;;;;19.70;13.10;;;;;;;19.86;64.61;101853.72;5002217;28;20049;-76
2021/09/21 10:47:23;;;;;;;16.98;12.63;;;;;;;19.89;64.48;101857.88;4997510;28;20083;-77
2021/09/21 10:49:49;;;;;;;12.57;11.00;;;;;;;20.00;64.85;101847.97;5013739;28;20034;-76
2021/09/21 10:52:16;;;;;;;13.50;10.77;;;;;;;20.12;64.77;101851.00;4983283;28;20026;-76
2021/09/21 10:54:52;;;;;;;16.55;12.18;;;;;;;20.16;63.78;101854.81;5009000;28;20114;-76
2021/09/21 10:57:29;;;;;;;15.30;11.23;;;;;;;20.21;64.27;101849.03;5012627;28;20033;-77
2021/09/21 10:59:58;;;;;;;14.55;10.93;;;;;;;20.33;62.88;101850.41;4996757;28;20041;-76
2021/09/21 11:02:35;;;;;;;17.48;11.77;;;;;;;20.35;63.32;101848.09;5013556;28;20056;-76
2021/09/21 11:05:00;;;;;;;14.32;10.45;;;;;;;20.38;62.62;101848.25;5017065;28;20033;-77
2021/09/21 11:07:26;;;;;;;14.30;10.15;;;;;;;20.35;61.63;101846.09;5010502;28;20041;-76
2021/09/21 11:09:53;;;;;;;14.18;9.98;;;;;;;20.41;61.67;101846.78;5011266;28;20038;-77
2021/09/21 11:12:20;;;;;;;15.05;10.48;;;;;;;20.44;61.73;101837.66;5010025;28;20425;-76
2021/09/21 11:14:47;;;;;;;14.02;9.07;;;;;;;20.58;61.75;101843.19;4999050;28;20375;-77
2021/09/21 11:17:12;;;;;;;10.38;8.48;;;;;;;20.63;61.36;101843.03;5006289;28;20038;-76
2021/09/21 11:19:38;;;;;;;12.35;9.95;;;;;;;20.69;61.92;101839.69;5006197;28;20049;-69
2021/09/21 11:22:08;;;;;;;16.58;11.85;;;;;;;20.66;61.35;101829.06;4992843;28;20062;-69
2021/09/21 11:24:34;;;;;;;16.23;10.35;;;;;;;20.72;62.06;101833.38;4993003;28;20069;-69
2021/09/21 11:27:01;;;;;;;13.77;10.02;;;;;;;20.85;61.89;101836.41;4982308;28;20061;-69
2021/09/21 11:29:27;;;;;;;10.77;7.78;;;;;;;20.88;59.03;101827.25;4998571;28;20034;-69